createdAt,value
2017-08-09T00:00:01.050Z,99.20
2017-08-09T00:00:06.096Z,99.20
2017-08-09T00:00:10.373Z,99.20
2017-08-09T00:00:15.449Z,99.20
2017-08-09T00:00:19.717Z,99.20
2017-08-09T00:00:24.001Z,99.20
2017-08-09T00:00:28.252Z,99.30
2017-08-09T00:00:32.540Z,99.20
2017-08-09T00:00:36.832Z,99.20
2017-08-09T00:00:41.132Z,99.30
2017-08-09T00:00:45.412Z,99.30
2017-08-09T00:00:49.707Z,99.30
2017-08-09T00:00:53.960Z,99.20
2017-08-09T00:00:58.237Z,99.30
2017-08-09T00:01:02.518Z,99.20
2017-08-09T00:01:06.780Z,99.30
2017-08-09T00:01:11.855Z,99.20
2017-08-09T00:01:16.134Z,99.20
2017-08-09T00:01:20.410Z,99.30
2017-08-09T00:01:25.437Z,99.30
2017-08-09T00:01:29.727Z,99.20
2017-08-09T00:01:34.789Z,99.30
2017-08-09T00:01:39.081Z,99.30
2017-08-09T00:01:43.371Z,99.30
2017-08-09T00:01:47.648Z,99.30
2017-08-09T00:01:52.704Z,99.30
2017-08-09T00:01:56.979Z,99.30
2017-08-09T00:02:02.015Z,99.20
2017-08-09T00:02:06.283Z,99.40
2017-08-09T00:02:11.350Z,99.20
2017-08-09T00:02:15.687Z,99.20
2017-08-09T00:02:20.001Z,99.20
2017-08-09T00:02:24.282Z,99.20
2017-08-09T00:02:28.581Z,99.20
2017-08-09T00:02:32.832Z,99.20
2017-08-09T00:02:37.103Z,99.20
2017-08-09T00:02:41.395Z,99.20
2017-08-09T00:02:45.652Z,99.20
2017-08-09T00:02:49.944Z,99.20
2017-08-09T00:02:54.219Z,99.20
2017-08-09T00:02:58.491Z,99.20
2017-08-09T00:03:02.858Z,99.20
2017-08-09T00:03:07.157Z,99.20
2017-08-09T00:03:11.437Z,99.20
2017-08-09T00:03:16.472Z,99.20
2017-08-09T00:03:20.789Z,99.20
2017-08-09T00:03:25.103Z,99.20
2017-08-09T00:03:29.379Z,99.20
2017-08-09T00:03:33.665Z,99.20
2017-08-09T00:03:37.951Z,99.30
2017-08-09T00:03:42.992Z,99.20
2017-08-09T00:03:47.265Z,99.20
2017-08-09T00:03:52.297Z,99.10
2017-08-09T00:03:56.567Z,99.10
2017-08-09T00:04:00.842Z,99.40
2017-08-09T00:04:05.122Z,99.10
2017-08-09T00:04:09.401Z,99.10
2017-08-09T00:04:13.683Z,99.00
2017-08-09T00:04:17.951Z,99.00
2017-08-09T00:04:22.234Z,99.00
2017-08-09T00:04:26.494Z,99.00
2017-08-09T00:04:31.546Z,99.00
2017-08-09T00:04:35.813Z,99.00
2017-08-09T00:04:40.887Z,99.00
2017-08-09T00:04:45.168Z,99.00
2017-08-09T00:04:49.441Z,99.00
2017-08-09T00:04:54.497Z,99.00
2017-08-09T00:04:58.791Z,99.00
2017-08-09T00:05:03.060Z,99.00
2017-08-09T00:05:08.115Z,99.00
2017-08-09T00:05:12.369Z,99.00
2017-08-09T00:05:17.405Z,99.00
2017-08-09T00:05:21.695Z,99.00
2017-08-09T00:05:26.726Z,99.00
2017-08-09T00:05:31.003Z,99.00
2017-08-09T00:05:36.050Z,99.00
2017-08-09T00:05:40.331Z,99.00
2017-08-09T00:05:45.374Z,99.00
2017-08-09T00:05:49.663Z,99.00
2017-08-09T00:05:53.945Z,99.00
2017-08-09T00:05:59.017Z,99.20
2017-08-09T00:06:03.303Z,99.00
2017-08-09T00:06:07.590Z,99.00
2017-08-09T00:06:11.886Z,99.00
2017-08-09T00:06:16.183Z,98.90
2017-08-09T00:06:21.247Z,99.20
2017-08-09T00:06:25.528Z,99.00
2017-08-09T00:06:29.804Z,99.00
2017-08-09T00:06:34.102Z,98.90
2017-08-09T00:06:38.394Z,98.90
2017-08-09T00:06:43.488Z,98.90
2017-08-09T00:06:47.768Z,98.90
2017-08-09T00:06:52.053Z,98.90
2017-08-09T00:06:56.312Z,98.90
2017-08-09T00:07:01.364Z,98.90
2017-08-09T00:07:05.632Z,98.90
2017-08-09T00:07:10.667Z,98.90
2017-08-09T00:07:15.393Z,98.90
2017-08-09T00:07:19.671Z,98.90
2017-08-09T00:07:23.951Z,98.90
2017-08-09T00:07:28.256Z,98.90
2017-08-09T00:07:32.507Z,98.90
2017-08-09T00:07:36.789Z,98.90
2017-08-09T00:07:41.077Z,98.90
2017-08-09T00:07:46.115Z,98.90
2017-08-09T00:07:50.390Z,98.90
2017-08-09T00:07:55.677Z,98.90
2017-08-09T00:07:59.969Z,98.90
2017-08-09T00:08:04.275Z,98.90
2017-08-09T00:08:08.573Z,98.90
2017-08-09T00:08:12.849Z,98.90
2017-08-09T00:08:17.121Z,98.90
2017-08-09T00:08:22.176Z,98.90
2017-08-09T00:08:26.445Z,98.90
2017-08-09T00:08:31.481Z,98.90
2017-08-09T00:08:35.763Z,98.90
2017-08-09T00:08:40.806Z,98.90
2017-08-09T00:08:45.067Z,98.90
2017-08-09T00:08:50.135Z,99.10
2017-08-09T00:08:54.399Z,98.90
2017-08-09T00:08:59.446Z,99.00
2017-08-09T00:09:03.716Z,99.00
2017-08-09T00:09:08.762Z,99.00
2017-08-09T00:09:13.050Z,99.00
2017-08-09T00:09:17.357Z,99.00
2017-08-09T00:09:22.487Z,99.00
2017-08-09T00:09:26.808Z,99.00
2017-08-09T00:09:31.105Z,99.00
2017-08-09T00:09:35.371Z,98.90
2017-08-09T00:09:39.672Z,98.90
2017-08-09T00:09:44.725Z,99.00
2017-08-09T00:09:49.002Z,99.00
2017-08-09T00:09:53.278Z,99.00
2017-08-09T00:09:58.311Z,99.20
2017-08-09T00:10:02.617Z,99.00
2017-08-09T00:10:06.899Z,99.00
2017-08-09T00:10:11.193Z,99.00
2017-08-09T00:10:16.225Z,99.10
2017-08-09T00:10:20.602Z,99.10
2017-08-09T00:10:24.885Z,99.00
2017-08-09T00:10:29.258Z,99.00
2017-08-09T00:10:33.521Z,99.00
2017-08-09T00:10:38.572Z,99.10
2017-08-09T00:10:42.854Z,99.10
2017-08-09T00:10:47.913Z,99.10
2017-08-09T00:10:52.174Z,99.10
2017-08-09T00:10:57.198Z,99.10
2017-08-09T00:11:01.480Z,99.10
2017-08-09T00:11:06.517Z,99.10
2017-08-09T00:11:10.778Z,99.10
2017-08-09T00:11:15.050Z,99.10
2017-08-09T00:11:19.339Z,99.10
2017-08-09T00:11:23.601Z,99.10
2017-08-09T00:11:28.641Z,99.10
2017-08-09T00:11:32.927Z,99.10
2017-08-09T00:11:37.967Z,99.10
2017-08-09T00:11:42.247Z,99.10
2017-08-09T00:11:47.313Z,99.10
2017-08-09T00:11:51.577Z,99.00
2017-08-09T00:11:55.859Z,99.00
2017-08-09T00:12:00.167Z,99.10
2017-08-09T00:12:05.217Z,99.10
2017-08-09T00:12:09.497Z,99.10
2017-08-09T00:12:13.777Z,99.10
2017-08-09T00:12:18.067Z,99.10
2017-08-09T00:12:22.329Z,99.10
2017-08-09T00:12:26.607Z,99.10
2017-08-09T00:12:30.930Z,99.20
2017-08-09T00:12:35.196Z,99.20
2017-08-09T00:12:40.234Z,99.30
2017-08-09T00:12:44.502Z,99.30
2017-08-09T00:12:49.578Z,99.30
2017-08-09T00:12:53.857Z,99.30
2017-08-09T00:12:58.130Z,99.30
2017-08-09T00:13:03.194Z,99.40
2017-08-09T00:13:07.473Z,99.40
2017-08-09T00:13:11.761Z,99.60
2017-08-09T00:13:16.789Z,99.40
2017-08-09T00:13:21.090Z,99.40
2017-08-09T00:13:25.367Z,99.40
2017-08-09T00:13:30.423Z,99.40
2017-08-09T00:13:34.811Z,99.40
2017-08-09T00:13:39.106Z,99.40
2017-08-09T00:13:44.143Z,99.40
2017-08-09T00:13:48.402Z,99.40
2017-08-09T00:13:52.669Z,99.40
2017-08-09T00:13:56.957Z,99.40
2017-08-09T00:14:01.226Z,99.40
2017-08-09T00:14:06.302Z,99.40
2017-08-09T00:14:10.594Z,99.40
2017-08-09T00:14:14.848Z,99.40
2017-08-09T00:14:19.148Z,99.40
2017-08-09T00:14:23.430Z,99.40
2017-08-09T00:14:28.476Z,99.40
2017-08-09T00:14:32.763Z,99.40
2017-08-09T00:14:37.898Z,99.40
2017-08-09T00:14:42.937Z,99.40
2017-08-09T00:14:47.202Z,99.40
2017-08-09T00:14:52.236Z,99.40
2017-08-09T00:14:56.541Z,99.40
2017-08-09T00:15:00.814Z,99.40
2017-08-09T00:15:05.920Z,99.50
2017-08-09T00:15:11.493Z,99.40
2017-08-09T00:15:15.775Z,99.40
2017-08-09T00:15:20.833Z,99.50
2017-08-09T00:15:25.107Z,99.40
2017-08-09T00:15:29.390Z,99.40
2017-08-09T00:15:34.462Z,99.40
2017-08-09T00:15:38.880Z,99.40
2017-08-09T00:15:43.164Z,99.40
2017-08-09T00:15:47.464Z,99.40
2017-08-09T00:15:51.731Z,99.40
2017-08-09T00:15:56.009Z,99.50
2017-08-09T00:16:00.295Z,99.50
2017-08-09T00:16:04.564Z,99.50
2017-08-09T00:16:08.954Z,99.50
2017-08-09T00:16:13.205Z,99.50
2017-08-09T00:16:17.499Z,99.50
2017-08-09T00:16:21.769Z,99.50
2017-08-09T00:16:26.055Z,99.50
2017-08-09T00:16:30.338Z,99.50
2017-08-09T00:16:34.624Z,99.50
2017-08-09T00:16:39.741Z,99.50
2017-08-09T00:16:44.809Z,99.50
2017-08-09T00:16:49.268Z,99.50
2017-08-09T00:16:54.355Z,99.50
2017-08-09T00:16:58.763Z,99.50
2017-08-09T00:17:03.104Z,99.50
2017-08-09T00:17:07.492Z,99.40
2017-08-09T00:17:11.805Z,99.50
2017-08-09T00:17:16.881Z,99.40
2017-08-09T00:17:21.182Z,99.40
2017-08-09T00:17:25.548Z,99.40
2017-08-09T00:17:29.827Z,99.50
2017-08-09T00:17:34.879Z,99.50
2017-08-09T00:17:39.169Z,99.40
2017-08-09T00:17:43.451Z,99.40
2017-08-09T00:17:48.476Z,99.40
2017-08-09T00:17:53.630Z,99.40
2017-08-09T00:17:57.919Z,99.40
2017-08-09T00:18:02.199Z,99.40
2017-08-09T00:18:06.466Z,99.40
2017-08-09T00:18:10.734Z,99.40
2017-08-09T00:18:14.996Z,99.40
2017-08-09T00:18:19.261Z,99.30
2017-08-09T00:18:23.535Z,99.30
2017-08-09T00:18:27.835Z,99.30
2017-08-09T00:18:32.124Z,99.30
2017-08-09T00:18:36.422Z,99.30
2017-08-09T00:18:40.673Z,99.40
2017-08-09T00:18:44.943Z,99.40
2017-08-09T00:18:49.225Z,99.40
2017-08-09T00:18:53.491Z,99.40
2017-08-09T00:18:58.528Z,99.40
2017-08-09T00:19:02.820Z,99.40
2017-08-09T00:19:07.848Z,99.40
2017-08-09T00:19:12.127Z,99.40
2017-08-09T00:19:17.174Z,99.70
2017-08-09T00:19:21.479Z,99.40
2017-08-09T00:19:25.741Z,99.40
2017-08-09T00:19:30.795Z,99.50
2017-08-09T00:19:35.099Z,99.50
2017-08-09T00:19:39.377Z,99.50
2017-08-09T00:19:44.487Z,99.50
2017-08-09T00:19:48.768Z,99.50
2017-08-09T00:19:53.036Z,99.50
2017-08-09T00:19:57.313Z,99.50
2017-08-09T00:20:01.628Z,99.50
2017-08-09T00:20:05.900Z,99.50
2017-08-09T00:20:10.170Z,99.50
2017-08-09T00:20:14.455Z,99.50
2017-08-09T00:20:18.781Z,99.50
2017-08-09T00:20:23.034Z,99.50
2017-08-09T00:20:27.321Z,99.50
2017-08-09T00:20:31.605Z,99.50
2017-08-09T00:20:36.649Z,99.50
2017-08-09T00:20:41.020Z,99.50
2017-08-09T00:20:45.296Z,99.50
2017-08-09T00:20:49.554Z,99.50
2017-08-09T00:20:53.850Z,99.50
2017-08-09T00:20:58.127Z,99.60
2017-08-09T00:21:03.184Z,99.50
2017-08-09T00:21:07.451Z,99.60
2017-08-09T00:21:12.487Z,99.60
2017-08-09T00:21:16.776Z,99.50
2017-08-09T00:21:21.819Z,99.50
2017-08-09T00:21:26.106Z,99.50
2017-08-09T00:21:30.384Z,99.50
2017-08-09T00:21:35.402Z,99.90
2017-08-09T00:21:40.453Z,99.50
2017-08-09T00:21:44.745Z,99.60
2017-08-09T00:21:49.073Z,99.50
2017-08-09T00:21:53.357Z,99.60
2017-08-09T00:21:57.634Z,99.60
2017-08-09T00:22:02.680Z,99.60
2017-08-09T00:22:06.981Z,99.60
2017-08-09T00:22:11.241Z,99.60
2017-08-09T00:22:16.320Z,99.60
2017-08-09T00:22:20.596Z,99.60
2017-08-09T00:22:24.896Z,99.60
2017-08-09T00:22:29.196Z,99.60
2017-08-09T00:22:33.475Z,99.60
2017-08-09T00:22:38.558Z,99.60
2017-08-09T00:22:42.849Z,99.60
2017-08-09T00:22:47.099Z,99.60
2017-08-09T00:22:52.131Z,99.70
2017-08-09T00:22:56.397Z,99.60
2017-08-09T00:23:00.663Z,99.60
2017-08-09T00:23:05.260Z,99.60
2017-08-09T00:23:09.703Z,99.60
2017-08-09T00:23:13.993Z,99.60
2017-08-09T00:23:18.267Z,99.60
2017-08-09T00:23:22.556Z,99.90
2017-08-09T00:23:26.837Z,99.60
2017-08-09T00:23:31.109Z,99.60
2017-08-09T00:23:35.381Z,99.60
2017-08-09T00:23:39.650Z,99.60
2017-08-09T00:23:43.919Z,99.60
2017-08-09T00:23:48.958Z,99.80
2017-08-09T00:23:53.256Z,99.60
2017-08-09T00:23:57.675Z,99.60
2017-08-09T00:24:01.977Z,99.60
2017-08-09T00:24:06.234Z,99.60
2017-08-09T00:24:10.518Z,99.50
2017-08-09T00:24:14.788Z,99.60
2017-08-09T00:24:19.053Z,99.60
2017-08-09T00:24:23.410Z,99.60
2017-08-09T00:24:27.671Z,99.60
2017-08-09T00:24:31.957Z,99.60
2017-08-09T00:24:36.243Z,99.60
2017-08-09T00:24:40.543Z,99.60
2017-08-09T00:24:44.809Z,99.60
2017-08-09T00:24:49.072Z,99.60
2017-08-09T00:24:53.356Z,99.60
2017-08-09T00:24:58.498Z,99.60
2017-08-09T00:25:02.781Z,99.50
2017-08-09T00:25:07.835Z,99.80
2017-08-09T00:25:12.137Z,99.60
2017-08-09T00:25:16.397Z,99.60
2017-08-09T00:25:21.458Z,99.60
2017-08-09T00:25:25.731Z,99.60
2017-08-09T00:25:29.997Z,99.60
2017-08-09T00:25:34.291Z,99.60
2017-08-09T00:25:38.549Z,99.60
2017-08-09T00:25:42.837Z,99.60
2017-08-09T00:25:47.115Z,99.60
2017-08-09T00:25:51.420Z,99.50
2017-08-09T00:25:55.735Z,99.50
2017-08-09T00:26:00.782Z,99.60
2017-08-09T00:26:05.072Z,99.60
2017-08-09T00:26:09.338Z,99.50
2017-08-09T00:26:14.404Z,99.50
2017-08-09T00:26:18.674Z,99.50
2017-08-09T00:26:23.725Z,99.50
2017-08-09T00:26:28.013Z,99.50
2017-08-09T00:26:32.298Z,99.50
2017-08-09T00:26:37.342Z,99.50
2017-08-09T00:26:41.601Z,99.50
2017-08-09T00:26:45.961Z,99.50
2017-08-09T00:26:50.250Z,99.50
2017-08-09T00:26:54.506Z,99.50
2017-08-09T00:26:58.802Z,99.50
2017-08-09T00:27:03.066Z,99.60
2017-08-09T00:27:07.360Z,99.50
2017-08-09T00:27:11.665Z,99.50
2017-08-09T00:27:16.004Z,99.50
2017-08-09T00:27:20.266Z,99.50
2017-08-09T00:27:24.550Z,99.50
2017-08-09T00:27:28.847Z,99.50
2017-08-09T00:27:33.130Z,99.50
2017-08-09T00:27:38.193Z,99.50
2017-08-09T00:27:42.466Z,99.50
2017-08-09T00:27:46.748Z,99.50
2017-08-09T00:27:51.017Z,99.50
2017-08-09T00:27:55.282Z,99.50
2017-08-09T00:27:59.580Z,99.40
2017-08-09T00:28:03.860Z,99.40
2017-08-09T00:28:08.122Z,99.40
2017-08-09T00:28:12.410Z,99.40
2017-08-09T00:28:16.723Z,99.40
2017-08-09T00:28:21.001Z,99.40
2017-08-09T00:28:25.272Z,99.40
2017-08-09T00:28:29.566Z,99.40
2017-08-09T00:28:33.850Z,99.40
2017-08-09T00:28:38.886Z,99.50
2017-08-09T00:28:43.155Z,99.50
2017-08-09T00:28:47.447Z,99.50
2017-08-09T00:28:51.715Z,99.50
2017-08-09T00:28:55.986Z,99.50
2017-08-09T00:29:00.272Z,99.50
2017-08-09T00:29:04.628Z,99.50
2017-08-09T00:29:08.900Z,99.50
2017-08-09T00:29:13.201Z,99.40
2017-08-09T00:29:17.495Z,99.40
2017-08-09T00:29:22.501Z,99.40
2017-08-09T00:29:26.789Z,99.40
2017-08-09T00:29:31.830Z,99.40
2017-08-09T00:29:36.094Z,99.40
2017-08-09T00:29:40.387Z,99.40
2017-08-09T00:29:44.654Z,99.40
2017-08-09T00:29:48.936Z,99.40
2017-08-09T00:29:53.216Z,99.30
2017-08-09T00:29:57.482Z,99.30
2017-08-09T00:30:01.811Z,99.30
2017-08-09T00:30:06.853Z,99.30
2017-08-09T00:30:11.144Z,99.30
2017-08-09T00:30:16.185Z,99.30
2017-08-09T00:30:20.524Z,99.30
2017-08-09T00:30:24.800Z,99.30
2017-08-09T00:30:29.105Z,99.30
2017-08-09T00:30:33.410Z,99.30
2017-08-09T00:30:37.675Z,99.30
2017-08-09T00:30:41.939Z,99.40
2017-08-09T00:30:46.241Z,99.40
2017-08-09T00:30:50.507Z,99.40
2017-08-09T00:30:54.765Z,99.40
2017-08-09T00:30:59.807Z,99.40
2017-08-09T00:31:04.667Z,99.40
2017-08-09T00:31:09.729Z,99.60
2017-08-09T00:31:14.015Z,99.40
2017-08-09T00:31:19.097Z,99.40
2017-08-09T00:31:23.386Z,99.40
2017-08-09T00:31:27.684Z,99.40
2017-08-09T00:31:31.974Z,99.40
2017-08-09T00:31:36.244Z,99.40
2017-08-09T00:31:41.297Z,99.40
2017-08-09T00:31:45.567Z,99.40
2017-08-09T00:31:50.617Z,99.40
2017-08-09T00:31:54.898Z,99.40
2017-08-09T00:31:59.204Z,99.40
2017-08-09T00:32:03.450Z,99.30
2017-08-09T00:32:07.758Z,99.30
2017-08-09T00:32:12.039Z,99.30
2017-08-09T00:32:16.300Z,99.30
2017-08-09T00:32:20.642Z,99.30
2017-08-09T00:32:24.926Z,99.30
2017-08-09T00:32:29.207Z,99.40
2017-08-09T00:32:33.489Z,99.30
2017-08-09T00:32:38.560Z,99.40
2017-08-09T00:32:42.803Z,99.30
2017-08-09T00:32:47.867Z,99.30
2017-08-09T00:32:52.145Z,99.30
2017-08-09T00:32:56.440Z,99.30
2017-08-09T00:33:00.709Z,99.30
2017-08-09T00:33:05.038Z,99.30
2017-08-09T00:33:10.071Z,99.40
2017-08-09T00:33:14.365Z,99.30
2017-08-09T00:33:19.412Z,99.30
2017-08-09T00:33:23.688Z,99.40
2017-08-09T00:33:27.950Z,99.40
2017-08-09T00:33:32.229Z,99.40
2017-08-09T00:33:36.513Z,99.30
2017-08-09T00:33:40.778Z,99.30
2017-08-09T00:33:45.055Z,99.40
2017-08-09T00:33:49.335Z,99.30
2017-08-09T00:33:53.619Z,99.30
2017-08-09T00:33:57.883Z,99.40
2017-08-09T00:34:02.943Z,99.30
2017-08-09T00:34:07.236Z,99.30
2017-08-09T00:34:11.499Z,99.30
2017-08-09T00:34:16.610Z,99.30
2017-08-09T00:34:20.860Z,99.30
2017-08-09T00:34:25.127Z,99.30
2017-08-09T00:34:29.388Z,99.30
2017-08-09T00:34:33.683Z,99.30
2017-08-09T00:34:37.975Z,99.30
2017-08-09T00:34:42.262Z,99.30
2017-08-09T00:34:46.532Z,99.30
2017-08-09T00:34:51.577Z,99.30
2017-08-09T00:34:55.873Z,99.30
2017-08-09T00:35:00.147Z,99.30
2017-08-09T00:35:05.196Z,99.30
2017-08-09T00:35:09.467Z,99.30
2017-08-09T00:35:14.503Z,99.30
2017-08-09T00:35:18.772Z,99.30
2017-08-09T00:35:23.800Z,99.50
2017-08-09T00:35:28.840Z,99.30
2017-08-09T00:35:33.115Z,99.30
2017-08-09T00:35:38.174Z,99.30
2017-08-09T00:35:42.453Z,99.30
2017-08-09T00:35:46.724Z,99.30
2017-08-09T00:35:51.003Z,99.30
2017-08-09T00:35:55.273Z,99.30
2017-08-09T00:35:59.569Z,99.30
2017-08-09T00:36:03.842Z,99.30
2017-08-09T00:36:08.879Z,99.40
2017-08-09T00:36:13.217Z,99.40
2017-08-09T00:36:17.547Z,99.30
2017-08-09T00:36:21.823Z,99.30
2017-08-09T00:36:26.111Z,99.30
2017-08-09T00:36:30.390Z,99.30
2017-08-09T00:36:34.663Z,99.30
2017-08-09T00:36:38.949Z,99.40
2017-08-09T00:36:43.238Z,99.40
2017-08-09T00:36:47.539Z,99.40
2017-08-09T00:36:51.839Z,99.40
2017-08-09T00:36:56.136Z,99.40
2017-08-09T00:37:00.473Z,99.40
2017-08-09T00:37:04.783Z,99.40
2017-08-09T00:37:09.805Z,99.40
2017-08-09T00:37:14.090Z,99.40
2017-08-09T00:37:19.133Z,99.40
2017-08-09T00:37:23.440Z,99.40
2017-08-09T00:37:27.742Z,99.40
2017-08-09T00:37:32.037Z,99.40
2017-08-09T00:37:36.310Z,99.40
2017-08-09T00:37:41.363Z,99.40
2017-08-09T00:37:45.657Z,99.50
2017-08-09T00:37:50.689Z,99.40
2017-08-09T00:37:54.945Z,99.40
2017-08-09T00:37:59.264Z,99.40
2017-08-09T00:38:04.352Z,99.40
2017-08-09T00:38:08.631Z,99.40
2017-08-09T00:38:12.914Z,99.40
2017-08-09T00:38:17.229Z,99.40
2017-08-09T00:38:21.525Z,99.40
2017-08-09T00:38:25.807Z,99.40
2017-08-09T00:38:30.085Z,99.40
2017-08-09T00:38:35.163Z,99.40
2017-08-09T00:38:39.417Z,99.40
2017-08-09T00:38:43.716Z,99.30
2017-08-09T00:38:48.747Z,99.40
2017-08-09T00:38:53.048Z,99.40
2017-08-09T00:38:57.375Z,99.30
2017-08-09T00:39:02.075Z,99.40
2017-08-09T00:39:06.366Z,99.40
2017-08-09T00:39:10.714Z,99.30
2017-08-09T00:39:14.983Z,99.30
2017-08-09T00:39:19.273Z,99.30
2017-08-09T00:39:23.552Z,99.30
2017-08-09T00:39:28.594Z,99.30
2017-08-09T00:39:32.870Z,99.30
2017-08-09T00:39:37.904Z,99.40
2017-08-09T00:39:42.177Z,99.30
2017-08-09T00:39:47.252Z,99.30
2017-08-09T00:39:51.520Z,99.30
2017-08-09T00:39:55.807Z,99.30
2017-08-09T00:40:00.877Z,99.30
2017-08-09T00:40:05.181Z,99.30
2017-08-09T00:40:09.461Z,99.30
2017-08-09T00:40:13.727Z,99.30
2017-08-09T00:40:18.800Z,99.30
2017-08-09T00:40:23.097Z,99.30
2017-08-09T00:40:27.382Z,99.30
2017-08-09T00:40:31.670Z,99.30
2017-08-09T00:40:35.954Z,99.30
2017-08-09T00:40:40.973Z,99.30
2017-08-09T00:40:45.251Z,99.30
2017-08-09T00:40:50.284Z,99.30
2017-08-09T00:40:54.551Z,99.30
2017-08-09T00:40:58.820Z,99.30
2017-08-09T00:41:03.098Z,99.30
2017-08-09T00:41:07.384Z,99.30
2017-08-09T00:41:12.419Z,99.30
2017-08-09T00:41:16.688Z,99.30
2017-08-09T00:41:21.739Z,99.30
2017-08-09T00:41:26.001Z,99.30
2017-08-09T00:41:30.284Z,99.30
2017-08-09T00:41:34.547Z,99.30
2017-08-09T00:41:38.821Z,99.30
2017-08-09T00:41:43.877Z,99.30
2017-08-09T00:41:48.163Z,99.30
2017-08-09T00:41:52.441Z,99.30
2017-08-09T00:41:57.492Z,99.30
2017-08-09T00:42:01.767Z,99.30
2017-08-09T00:42:06.792Z,99.30
2017-08-09T00:42:11.079Z,99.30
2017-08-09T00:42:16.111Z,99.30
2017-08-09T00:42:20.470Z,99.30
2017-08-09T00:42:24.738Z,99.30
2017-08-09T00:42:29.021Z,99.30
2017-08-09T00:42:33.291Z,99.50
2017-08-09T00:42:37.571Z,99.30
2017-08-09T00:42:41.861Z,99.30
2017-08-09T00:42:46.109Z,99.30
2017-08-09T00:42:51.159Z,99.30
2017-08-09T00:42:55.454Z,99.30
2017-08-09T00:42:59.731Z,99.20
2017-08-09T00:43:04.018Z,99.20
2017-08-09T00:43:08.286Z,99.20
2017-08-09T00:43:12.563Z,99.20
2017-08-09T00:43:16.831Z,99.20
2017-08-09T00:43:21.959Z,99.20
2017-08-09T00:43:26.995Z,99.20
2017-08-09T00:43:31.286Z,99.30
2017-08-09T00:43:35.572Z,99.20
2017-08-09T00:43:39.854Z,99.30
2017-08-09T00:43:44.134Z,99.30
2017-08-09T00:43:48.401Z,99.20
2017-08-09T00:43:52.675Z,99.20
2017-08-09T00:43:56.962Z,99.20
2017-08-09T00:44:01.245Z,99.20
2017-08-09T00:44:05.581Z,99.20
2017-08-09T00:44:10.625Z,99.20
2017-08-09T00:44:14.890Z,99.20
2017-08-09T00:44:19.934Z,99.20
2017-08-09T00:44:24.262Z,99.20
2017-08-09T00:44:28.542Z,99.30
2017-08-09T00:44:32.830Z,99.20
2017-08-09T00:44:37.877Z,99.20
2017-08-09T00:44:42.137Z,99.20
2017-08-09T00:44:47.234Z,99.20
2017-08-09T00:44:51.502Z,99.20
2017-08-09T00:44:55.771Z,99.20
2017-08-09T00:45:00.051Z,99.20
2017-08-09T00:45:05.113Z,99.20
2017-08-09T00:45:09.394Z,99.20
2017-08-09T00:45:13.661Z,99.20
2017-08-09T00:45:17.953Z,99.20
2017-08-09T00:45:22.244Z,99.20
2017-08-09T00:45:26.499Z,99.20
2017-08-09T00:45:30.765Z,99.20
2017-08-09T00:45:35.827Z,99.20
2017-08-09T00:45:40.090Z,99.20
2017-08-09T00:45:45.175Z,99.20
2017-08-09T00:45:49.425Z,99.20
2017-08-09T00:45:54.454Z,99.20
2017-08-09T00:45:58.728Z,99.20
2017-08-09T00:46:03.781Z,99.00
2017-08-09T00:46:08.059Z,99.20
2017-08-09T00:46:13.103Z,99.20
2017-08-09T00:46:17.385Z,99.20
2017-08-09T00:46:22.469Z,99.20
2017-08-09T00:46:26.776Z,99.20
2017-08-09T00:46:31.033Z,99.20
2017-08-09T00:46:35.337Z,99.20
2017-08-09T00:46:39.636Z,99.20
2017-08-09T00:46:43.902Z,99.10
2017-08-09T00:46:48.179Z,99.10
2017-08-09T00:46:52.965Z,99.10
2017-08-09T00:46:57.417Z,99.10
2017-08-09T00:47:02.452Z,99.10
2017-08-09T00:47:06.752Z,99.10
2017-08-09T00:47:11.037Z,99.10
2017-08-09T00:47:15.345Z,99.00
2017-08-09T00:47:20.391Z,99.00
2017-08-09T00:47:24.663Z,99.00
2017-08-09T00:47:28.956Z,99.00
2017-08-09T00:47:33.234Z,98.90
2017-08-09T00:47:37.499Z,98.90
2017-08-09T00:47:41.759Z,98.90
2017-08-09T00:47:46.794Z,99.20
2017-08-09T00:47:51.058Z,98.90
2017-08-09T00:47:55.341Z,98.90
2017-08-09T00:47:59.609Z,98.90
2017-08-09T00:48:03.888Z,98.90
2017-08-09T00:48:08.917Z,98.90
2017-08-09T00:48:13.203Z,98.90
2017-08-09T00:48:18.255Z,98.90
2017-08-09T00:48:22.534Z,98.90
2017-08-09T00:48:26.844Z,98.80
2017-08-09T00:48:31.123Z,98.90
2017-08-09T00:48:36.168Z,98.80
2017-08-09T00:48:40.461Z,98.90
2017-08-09T00:48:45.481Z,98.80
2017-08-09T00:48:49.748Z,98.80
2017-08-09T00:48:54.799Z,99.20
2017-08-09T00:48:59.089Z,98.80
2017-08-09T00:49:04.140Z,98.80
2017-08-09T00:49:08.460Z,98.80
2017-08-09T00:49:12.725Z,98.80
2017-08-09T00:49:16.986Z,98.80
2017-08-09T00:49:22.129Z,98.80
2017-08-09T00:49:27.174Z,98.90
2017-08-09T00:49:31.432Z,98.90
2017-08-09T00:49:36.468Z,99.10
2017-08-09T00:49:40.765Z,98.70
2017-08-09T00:49:45.820Z,99.00
2017-08-09T00:49:50.091Z,98.90
2017-08-09T00:49:55.124Z,98.80
2017-08-09T00:49:59.401Z,98.80
2017-08-09T00:50:04.447Z,98.80
2017-08-09T00:50:08.754Z,98.80
2017-08-09T00:50:13.019Z,98.80
2017-08-09T00:50:17.320Z,98.80
2017-08-09T00:50:21.577Z,98.80
2017-08-09T00:50:25.867Z,98.80
2017-08-09T00:50:30.226Z,98.80
2017-08-09T00:50:34.467Z,98.80
2017-08-09T00:50:38.755Z,98.80
2017-08-09T00:50:43.034Z,98.80
2017-08-09T00:50:47.311Z,98.80
2017-08-09T00:50:51.599Z,98.80
2017-08-09T00:50:55.877Z,98.80
2017-08-09T00:51:00.150Z,98.80
2017-08-09T00:51:04.431Z,98.80
2017-08-09T00:51:08.681Z,98.80
2017-08-09T00:51:12.983Z,98.80
2017-08-09T00:51:17.238Z,98.80
2017-08-09T00:51:22.289Z,98.80
2017-08-09T00:51:26.564Z,98.80
2017-08-09T00:51:31.617Z,98.80
2017-08-09T00:51:35.908Z,98.80
2017-08-09T00:51:40.182Z,98.80
2017-08-09T00:51:45.201Z,98.80
2017-08-09T00:51:49.501Z,98.80
2017-08-09T00:51:54.565Z,98.70
2017-08-09T00:51:58.835Z,98.70
2017-08-09T00:52:03.107Z,98.70
2017-08-09T00:52:08.152Z,98.70
2017-08-09T00:52:12.416Z,98.70
2017-08-09T00:52:16.692Z,98.70
2017-08-09T00:52:21.009Z,98.70
2017-08-09T00:52:25.298Z,98.70
2017-08-09T00:52:29.584Z,98.70
2017-08-09T00:52:33.877Z,98.60
2017-08-09T00:52:38.155Z,98.60
2017-08-09T00:52:42.448Z,98.60
2017-08-09T00:52:46.718Z,98.60
2017-08-09T00:52:50.989Z,98.60
2017-08-09T00:52:55.285Z,98.60
2017-08-09T00:52:59.569Z,98.60
2017-08-09T00:53:03.825Z,98.60
2017-08-09T00:53:08.138Z,98.60
2017-08-09T00:53:13.201Z,98.60
2017-08-09T00:53:17.488Z,98.60
2017-08-09T00:53:21.786Z,98.60
2017-08-09T00:53:26.061Z,98.60
2017-08-09T00:53:31.109Z,98.60
2017-08-09T00:53:35.379Z,98.60
2017-08-09T00:53:40.393Z,98.60
2017-08-09T00:53:45.442Z,98.50
2017-08-09T00:53:49.749Z,98.60
2017-08-09T00:53:54.040Z,98.50
2017-08-09T00:53:58.318Z,98.50
2017-08-09T00:54:03.372Z,98.50
2017-08-09T00:54:07.633Z,98.50
2017-08-09T00:54:12.681Z,98.50
2017-08-09T00:54:16.972Z,98.50
2017-08-09T00:54:22.039Z,98.40
2017-08-09T00:54:26.356Z,98.50
2017-08-09T00:54:30.640Z,98.40
2017-08-09T00:54:34.914Z,98.40
2017-08-09T00:54:39.199Z,98.40
2017-08-09T00:54:44.249Z,98.40
2017-08-09T00:54:48.507Z,98.40
2017-08-09T00:54:52.829Z,98.40
2017-08-09T00:54:57.100Z,98.40
2017-08-09T00:55:01.385Z,98.40
2017-08-09T00:55:05.687Z,98.30
2017-08-09T00:55:09.945Z,98.30
2017-08-09T00:55:14.239Z,98.30
2017-08-09T00:55:18.503Z,98.30
2017-08-09T00:55:23.541Z,98.60
2017-08-09T00:55:27.828Z,98.30
2017-08-09T00:55:32.849Z,98.60
2017-08-09T00:55:37.902Z,98.40
2017-08-09T00:55:42.182Z,98.30
2017-08-09T00:55:47.204Z,98.20
2017-08-09T00:55:51.500Z,98.20
2017-08-09T00:55:55.814Z,98.20
2017-08-09T00:56:00.079Z,98.20
2017-08-09T00:56:04.363Z,98.20
2017-08-09T00:56:08.653Z,98.20
2017-08-09T00:56:12.921Z,98.20
2017-08-09T00:56:17.185Z,98.10
2017-08-09T00:56:22.250Z,98.40
2017-08-09T00:56:26.512Z,98.20
2017-08-09T00:56:31.611Z,98.10
2017-08-09T00:56:35.909Z,98.10
2017-08-09T00:56:40.204Z,98.10
2017-08-09T00:56:44.479Z,98.10
2017-08-09T00:56:48.790Z,98.10
2017-08-09T00:56:53.028Z,98.40
2017-08-09T00:56:57.341Z,98.10
2017-08-09T00:57:02.392Z,98.10
2017-08-09T00:57:06.667Z,98.10
2017-08-09T00:57:11.690Z,98.10
2017-08-09T00:57:15.963Z,98.10
2017-08-09T00:57:21.251Z,98.20
2017-08-09T00:57:26.743Z,98.10
2017-08-09T00:57:31.029Z,98.10
2017-08-09T00:57:36.115Z,98.10